Time;durP1;ratioP1;P1;durP2;ratioP2;P2;SDS_P1;SDS_P2;PMS_P1;PMS_P2;Temp;Humidity;BMP_temperature;BMP_pressure;BME280_temperature;BME280_humidity;BME280_pressure;Samples;Min_cycle;Max_cycle;Signal;HPM_P1;HPM_P2
2024/01/12 00:00:57;;;;;;;74.77;37.00;;;;;;;-2.72;69.94;97339.09;5081389;28;20346;-65
2024/01/12 00:03:22;;;;;;;79.50;37.83;;;;;;;-2.70;70.37;97344.28;5086253;28;20177;-67
2024/01/12 00:05:47;;;;;;;86.10;41.07;;;;;;;-2.74;70.53;97342.47;5082012;28;20169;-67
2024/01/12 00:08:13;;;;;;;75.47;36.87;;;;;;;-2.81;70.57;97342.34;5088038;28;20197;-70
2024/01/12 00:10:38;;;;;;;73.50;37.07;;;;;;;-2.62;71.02;97340.22;5082831;28;20186;-67
2024/01/12 00:13:03;;;;;;;71.40;36.73;;;;;;;-2.61;70.68;97342.78;5077857;28;20190;-67
2024/01/12 00:15:29;;;;;;;72.93;38.03;;;;;;;-2.69;69.56;97346.91;5085073;28;20221;-67
2024/01/12 00:17:56;;;;;;;71.43;38.00;;;;;;;-2.59;69.66;97350.56;5083161;28;20272;-66
2024/01/12 00:20:21;;;;;;;68.87;34.50;;;;;;;-2.57;69.89;97351.47;5081381;28;20200;-68
2024/01/12 00:22:46;;;;;;;81.80;36.23;;;;;;;-2.49;69.74;97351.63;5084354;28;20435;-66
2024/01/12 00:25:13;;;;;;;78.33;37.30;;;;;;;-2.59;70.39;97347.97;5087217;28;20214;-66
2024/01/12 00:27:38;;;;;;;87.63;38.70;;;;;;;-2.61;70.22;97352.22;5078667;28;20208;-65
2024/01/12 00:30:05;;;;;;;70.90;37.10;;;;;;;-2.51;70.55;97351.56;5081772;28;20440;-66
2024/01/12 00:32:30;;;;;;;80.13;35.50;;;;;;;-2.53;69.31;97350.66;5083613;28;20281;-66
2024/01/12 00:34:55;;;;;;;82.70;36.27;;;;;;;-2.64;69.53;97341.88;5086817;28;20471;-69
2024/01/12 00:37:21;;;;;;;72.23;37.83;;;;;;;-2.79;69.83;97343.25;5074730;28;20210;-66
2024/01/12 00:39:46;;;;;;;72.70;36.30;;;;;;;-2.73;70.10;97342.53;5081290;28;20184;-67
2024/01/12 00:42:11;;;;;;;80.90;40.03;;;;;;;-2.63;70.69;97344.47;5080731;28;20194;-67
2024/01/12 00:44:37;;;;;;;73.30;37.40;;;;;;;-2.69;70.45;97349.47;5082882;28;20207;-66
2024/01/12 00:47:02;;;;;;;76.43;38.30;;;;;;;-2.58;69.73;97349.69;5089121;28;20193;-67
2024/01/12 00:49:27;;;;;;;72.13;36.03;;;;;;;-2.56;69.66;97346.34;5089484;28;20190;-68
2024/01/12 00:51:53;;;;;;;66.27;36.73;;;;;;;-2.52;70.19;97352.41;5085245;28;20189;-67
2024/01/12 00:54:22;;;;;;;74.10;38.77;;;;;;;-2.52;70.14;97360.13;5078845;28;20297;-66
2024/01/12 00:56:48;;;;;;;80.53;38.90;;;;;;;-2.74;70.68;97352.75;5076052;28;20254;-67
2024/01/12 00:59:13;;;;;;;82.40;37.10;;;;;;;-2.64;70.16;97357.28;5087592;28;20855;-65
2024/01/12 01:01:38;;;;;;;68.97;36.43;;;;;;;-2.78;70.90;97349.25;5076460;28;20188;-67
2024/01/12 01:04:04;;;;;;;74.83;38.67;;;;;;;-2.90;71.43;97344.69;5087869;28;20176;-67
2024/01/12 01:06:29;;;;;;;61.80;35.73;;;;;;;-2.78;70.73;97350.13;5075758;28;20190;-66
2024/01/12 01:08:55;;;;;;;88.63;38.80;;;;;;;-2.79;71.32;97342.38;5080022;28;20202;-65
2024/01/12 01:11:20;;;;;;;76.00;38.63;;;;;;;-2.70;71.36;97345.16;5080920;28;20246;-67
2024/01/12 01:13:46;;;;;;;73.60;35.30;;;;;;;-2.75;71.12;97349.31;5088362;28;20206;-67
2024/01/12 01:16:11;;;;;;;71.57;36.30;;;;;;;-2.74;71.33;97351.06;5081902;28;20217;-67
2024/01/12 01:18:37;;;;;;;79.53;37.80;;;;;;;-2.75;70.38;97351.88;5085821;28;20213;-66
2024/01/12 01:21:02;;;;;;;71.90;37.23;;;;;;;-2.55;69.71;97357.50;5077806;28;20768;-67
2024/01/12 01:23:28;;;;;;;71.60;35.17;;;;;;;-2.63;69.61;97352.16;5084227;28;20192;-67
2024/01/12 01:25:54;;;;;;;77.37;35.13;;;;;;;-2.77;70.31;97363.81;5086088;28;20170;-69
2024/01/12 01:28:19;;;;;;;71.87;35.60;;;;;;;-2.76;70.21;97355.31;5071105;28;20201;-66
2024/01/12 01:30:44;;;;;;;74.97;37.10;;;;;;;-2.67;71.37;97358.09;5086773;28;20419;-68
2024/01/12 01:33:10;;;;;;;75.30;37.90;;;;;;;-2.62;70.78;97371.03;5074889;28;20217;-66
2024/01/12 01:35:35;;;;;;;70.27;33.70;;;;;;;-2.59;70.96;97365.97;5082389;28;20205;-67
2024/01/12 01:38:01;;;;;;;68.60;37.10;;;;;;;-2.52;69.53;97362.69;5079785;28;20217;-68
2024/01/12 01:40:26;;;;;;;81.40;36.53;;;;;;;-2.74;70.16;97360.47;5087276;28;20196;-66
2024/01/12 01:42:51;;;;;;;86.53;36.70;;;;;;;-2.66;70.90;97366.66;5079614;28;20177;-68
2024/01/12 01:45:17;;;;;;;89.23;37.97;;;;;;;-2.75;70.73;97358.72;5084716;28;20596;-66
2024/01/12 01:47:43;;;;;;;93.40;40.50;;;;;;;-2.82;71.32;97361.16;5081118;28;20205;-65
2024/01/12 01:50:10;;;;;;;93.80;38.97;;;;;;;-2.80;70.43;97367.19;5075136;28;20217;-66
2024/01/12 01:52:37;;;;;;;69.77;36.87;;;;;;;-2.75;71.30;97363.88;5086952;28;20490;-67
2024/01/12 01:55:03;;;;;;;75.37;36.53;;;;;;;-2.68;70.36;97374.31;5078404;28;20830;-66
2024/01/12 01:57:28;;;;;;;75.00;35.43;;;;;;;-2.45;69.89;97371.44;5078031;28;20823;-66
2024/01/12 01:59:55;;;;;;;69.07;36.60;;;;;;;-2.51;69.96;97381.56;5076013;28;20431;-67
2024/01/12 02:02:21;;;;;;;72.80;36.27;;;;;;;-2.55;69.49;97372.91;5080503;28;20184;-66
2024/01/12 02:04:47;;;;;;;82.47;37.57;;;;;;;-2.66;70.09;97370.09;5079204;28;20438;-66
2024/01/12 02:07:13;;;;;;;81.83;39.00;;;;;;;-2.69;69.94;97369.13;5082066;28;20459;-68
2024/01/12 02:09:39;;;;;;;69.37;35.17;;;;;;;-2.66;69.83;97361.53;5074363;28;20438;-67
2024/01/12 02:12:05;;;;;;;69.70;33.93;;;;;;;-2.61;69.62;97365.06;5078863;28;20198;-66
2024/01/12 02:14:31;;;;;;;79.50;37.37;;;;;;;-2.63;69.85;97367.59;5084127;28;20462;-66
2024/01/12 02:16:57;;;;;;;78.37;37.73;;;;;;;-2.58;69.53;97358.28;5076869;28;20174;-68
2024/01/12 02:19:22;;;;;;;85.20;36.07;;;;;;;-2.66;70.19;97356.38;5081086;28;20438;-67
2024/01/12 02:21:47;;;;;;;69.83;34.77;;;;;;;-2.69;70.45;97349.47;5079724;28;20559;-69
2024/01/12 02:24:13;;;;;;;65.53;34.23;;;;;;;-2.61;69.54;97352.22;5084752;28;20264;-70
2024/01/12 02:26:38;;;;;;;74.13;35.97;;;;;;;-2.67;69.68;97352.94;5089713;28;20268;-69
2024/01/12 02:29:04;;;;;;;68.80;34.33;;;;;;;-2.70;70.14;97358.00;5080302;28;20212;-69
2024/01/12 02:31:30;;;;;;;69.17;36.00;;;;;;;-2.70;70.68;97352.00;5079913;28;20261;-68
2024/01/12 02:33:55;;;;;;;61.50;34.23;;;;;;;-2.73;71.17;97352.78;5071956;28;20674;-68
2024/01/12 02:36:24;;;;;;;71.97;33.63;;;;;;;-2.74;69.87;97351.06;5078628;28;20740;-68
2024/01/12 02:38:50;;;;;;;66.27;33.40;;;;;;;-2.82;70.94;97352.56;5070183;28;20243;-68
2024/01/12 02:41:15;;;;;;;68.50;34.17;;;;;;;-2.74;70.99;97353.66;5077833;28;20436;-70
2024/01/12 02:43:41;;;;;;;73.33;36.23;;;;;;;-2.74;70.72;97339.91;5077694;28;20190;-67
2024/01/12 02:46:06;;;;;;;70.90;35.87;;;;;;;-2.76;70.31;97334.75;5080116;28;20186;-67
2024/01/12 02:48:32;;;;;;;76.43;35.90;;;;;;;-2.61;69.64;97336.78;5078945;28;20197;-67
2024/01/12 02:50:57;;;;;;;73.13;37.23;;;;;;;-2.80;69.99;97332.94;5075106;28;20178;-67
2024/01/12 02:53:22;;;;;;;62.10;32.93;;;;;;;-2.75;69.66;97333.03;5079556;28;20553;-68
2024/01/12 02:55:48;;;;;;;68.67;36.50;;;;;;;-2.83;70.60;97328.59;5085675;28;20250;-67
2024/01/12 02:58:13;;;;;;;80.43;36.17;;;;;;;-2.61;69.84;97327.38;5081151;28;20197;-67
2024/01/12 03:00:39;;;;;;;65.07;35.43;;;;;;;-2.60;69.54;97334.28;5082471;28;20636;-66
2024/01/12 03:03:04;;;;;;;74.10;34.67;;;;;;;-2.71;69.72;97330.59;5082231;28;20897;-67
2024/01/12 03:05:31;;;;;;;74.37;35.33;;;;;;;-2.79;70.51;97322.72;5072592;28;20218;-67
2024/01/12 03:07:56;;;;;;;69.77;36.60;;;;;;;-2.83;70.35;97318.31;5084507;28;20757;-66
2024/01/12 03:10:21;;;;;;;71.60;35.70;;;;;;;-2.74;69.29;97317.69;5081540;28;20439;-66
2024/01/12 03:12:47;;;;;;;69.43;35.47;;;;;;;-2.81;69.42;97319.22;5083923;28;20213;-66
2024/01/12 03:15:12;;;;;;;64.53;33.20;;;;;;;-2.70;69.20;97321.16;5095089;28;20689;-68
2024/01/12 03:17:38;;;;;;;68.63;35.23;;;;;;;-2.73;68.36;97316.84;5083709;28;20197;-67
2024/01/12 03:20:05;;;;;;;84.70;37.70;;;;;;;-2.88;68.59;97322.50;5082242;28;20183;-69
2024/01/12 03:22:30;;;;;;;70.80;36.93;;;;;;;-2.87;68.51;97321.66;5089162;28;20760;-66
2024/01/12 03:24:55;;;;;;;66.90;33.43;;;;;;;-2.90;68.90;97321.59;5085754;28;20530;-70
2024/01/12 03:27:21;;;;;;;69.73;35.43;;;;;;;-2.99;69.49;97323.94;5080130;28;20221;-66
2024/01/12 03:29:46;;;;;;;60.77;36.17;;;;;;;-2.91;69.31;97324.97;5085478;28;20193;-67
2024/01/12 03:32:11;;;;;;;65.27;36.57;;;;;;;-2.90;68.13;97324.16;5076284;28;20198;-68
2024/01/12 03:34:37;;;;;;;76.23;35.50;;;;;;;-2.94;68.06;97332.59;5089224;28;20202;-67
2024/01/12 03:37:02;;;;;;;79.20;34.90;;;;;;;-3.05;68.01;97326.34;5081427;28;20232;-68
2024/01/12 03:39:27;;;;;;;64.07;33.83;;;;;;;-3.01;67.34;97333.28;5087843;28;20258;-68
2024/01/12 03:41:53;;;;;;;67.00;32.90;;;;;;;-3.03;67.89;97332.38;5080568;28;20181;-67
2024/01/12 03:44:18;;;;;;;69.37;35.73;;;;;;;-3.14;68.27;97329.56;5081382;28;20178;-69
2024/01/12 03:46:44;;;;;;;65.23;34.10;;;;;;;-3.14;69.34;97331.25;5085758;28;20185;-69
2024/01/12 03:49:09;;;;;;;66.10;34.17;;;;;;;-3.18;69.05;97332.03;5083882;28;20185;-68
2024/01/12 03:51:35;;;;;;;68.37;33.80;;;;;;;-3.25;68.38;97334.44;5088810;28;20181;-68
2024/01/12 03:54:00;;;;;;;65.37;33.63;;;;;;;-3.13;69.91;97333.00;5076492;28;20205;-67
2024/01/12 03:56:25;;;;;;;73.67;35.87;;;;;;;-3.28;69.92;97341.19;5081580;28;20214;-68
2024/01/12 03:58:51;;;;;;;66.73;35.00;;;;;;;-3.36;69.34;97340.97;5079932;28;20411;-68
2024/01/12 04:01:17;;;;;;;72.13;33.93;;;;;;;-3.24;69.57;97336.16;5079731;28;20531;-67
2024/01/12 04:03:42;;;;;;;71.73;36.90;;;;;;;-3.42;69.56;97333.16;5081994;28;20289;-67
2024/01/12 04:06:09;;;;;;;76.23;34.20;;;;;;;-3.23;69.03;97337.91;5076508;28;20510;-68
2024/01/12 04:08:34;;;;;;;72.30;33.83;;;;;;;-3.18;69.64;97342.28;5079971;28;20209;-66
2024/01/12 04:11:00;;;;;;;66.73;35.87;;;;;;;-3.18;68.28;97342.28;5096554;28;21207;-68
2024/01/12 04:13:25;;;;;;;86.27;39.03;;;;;;;-3.36;69.15;97328.16;5088545;28;20177;-66
2024/01/12 04:15:51;;;;;;;74.23;34.17;;;;;;;-3.22;69.18;97331.06;5077503;28;21010;-66
2024/01/12 04:18:16;;;;;;;70.27;32.37;;;;;;;-3.29;68.28;97334.31;5071117;28;20305;-66
2024/01/12 04:20:42;;;;;;;72.67;33.80;;;;;;;-3.20;68.80;97334.53;5082933;28;20235;-67
2024/01/12 04:23:07;;;;;;;66.33;33.87;;;;;;;-3.26;68.76;97335.28;5087896;28;20176;-68
2024/01/12 04:25:32;;;;;;;83.23;34.17;;;;;;;-3.32;68.16;97337.66;5080514;28;20181;-68
2024/01/12 04:27:58;;;;;;;73.43;35.40;;;;;;;-3.08;68.22;97342.53;5087963;28;20280;-66
2024/01/12 04:30:23;;;;;;;75.37;36.73;;;;;;;-3.06;67.45;97347.72;5077177;28;20186;-65
2024/01/12 04:32:48;;;;;;;71.50;34.37;;;;;;;-3.09;68.11;97350.22;5084423;28;20633;-67
2024/01/12 04:35:14;;;;;;;66.40;33.83;;;;;;;-3.07;68.59;97336.59;5083827;28;20258;-67
2024/01/12 04:37:39;;;;;;;88.43;37.97;;;;;;;-3.14;68.71;97344.09;5076343;28;20210;-67
2024/01/12 04:40:05;;;;;;;73.30;32.10;;;;;;;-3.24;68.67;97343.84;5075071;28;21808;-66
2024/01/12 04:42:31;;;;;;;76.63;38.90;;;;;;;-3.14;68.15;97344.09;5081747;28;20792;-68
2024/01/12 04:44:56;;;;;;;81.87;38.03;;;;;;;-3.14;68.52;97338.94;5086133;28;20516;-68
2024/01/12 04:47:21;;;;;;;70.53;33.43;;;;;;;-3.24;68.09;97341.28;5080504;28;20191;-67
2024/01/12 04:49:47;;;;;;;67.80;33.50;;;;;;;-3.21;68.41;97343.94;5081977;28;20256;-68
2024/01/12 04:52:12;;;;;;;69.57;32.83;;;;;;;-3.11;66.43;97350.19;5085562;28;20207;-67
2024/01/12 04:54:37;;;;;;;70.73;33.63;;;;;;;-3.35;67.17;97360.69;5079970;28;20244;-67
2024/01/12 04:57:03;;;;;;;68.20;33.03;;;;;;;-3.23;68.24;97357.56;5078563;28;20242;-67
2024/01/12 04:59:28;;;;;;;65.90;32.40;;;;;;;-3.32;68.56;97360.78;5081604;28;20189;-68
2024/01/12 05:01:54;;;;;;;74.40;37.27;;;;;;;-3.25;66.80;97362.66;5102821;28;20270;-67
2024/01/12 05:04:19;;;;;;;69.73;34.67;;;;;;;-3.28;67.02;97356.59;5086668;28;20173;-68
2024/01/12 05:06:44;;;;;;;72.47;34.13;;;;;;;-3.41;68.63;97368.22;5077846;28;20173;-68
2024/01/12 05:09:10;;;;;;;68.57;34.60;;;;;;;-3.41;68.62;97369.09;5086986;28;20181;-66
2024/01/12 05:11:36;;;;;;;69.13;35.33;;;;;;;-3.36;68.05;97363.22;5078568;28;20197;-67
2024/01/12 05:14:01;;;;;;;66.37;33.33;;;;;;;-3.42;67.30;97375.06;5080349;28;20667;-69
2024/01/12 05:16:26;;;;;;;84.30;37.20;;;;;;;-3.39;68.10;97371.72;5072812;28;20619;-68
2024/01/12 05:18:52;;;;;;;67.80;33.83;;;;;;;-3.28;67.79;97374.56;5083226;28;20656;-67
2024/01/12 05:21:17;;;;;;;70.57;34.40;;;;;;;-3.42;66.93;97384.47;5083497;28;20331;-70
2024/01/12 05:23:44;;;;;;;63.90;34.00;;;;;;;-3.47;67.10;97386.03;5077779;28;20186;-67
2024/01/12 05:26:09;;;;;;;65.90;33.13;;;;;;;-3.57;67.89;97386.59;5078642;28;20192;-67
2024/01/12 05:28:35;;;;;;;64.67;34.83;;;;;;;-3.44;68.96;97386.13;5082379;28;20463;-69
2024/01/12 05:31:00;;;;;;;70.20;34.33;;;;;;;-3.58;67.62;97382.31;5080582;28;20223;-66
2024/01/12 05:33:25;;;;;;;70.03;34.10;;;;;;;-3.67;67.86;97385.50;5078033;28;20188;-67
2024/01/12 05:35:51;;;;;;;75.97;34.60;;;;;;;-3.55;69.09;97392.66;5084125;28;20215;-67
2024/01/12 05:38:16;;;;;;;64.80;35.03;;;;;;;-3.50;68.75;97397.06;5080862;28;20743;-65
2024/01/12 05:40:42;;;;;;;67.83;35.40;;;;;;;-3.41;68.82;97396.47;5086550;28;20197;-67
2024/01/12 05:43:07;;;;;;;73.13;35.47;;;;;;;-3.49;68.41;97387.69;5082662;28;20192;-67
2024/01/12 05:45:32;;;;;;;76.97;37.87;;;;;;;-3.26;67.65;97391.75;5075624;28;20207;-67
2024/01/12 05:47:58;;;;;;;74.07;33.60;;;;;;;-3.29;68.06;97383.06;5084729;28;20212;-66
2024/01/12 05:50:23;;;;;;;71.30;34.00;;;;;;;-3.28;68.47;97377.13;5082217;28;20254;-70
2024/01/12 05:52:49;;;;;;;72.63;35.70;;;;;;;-3.36;68.70;97386.31;5083211;28;20173;-68
2024/01/12 05:55:14;;;;;;;63.00;34.63;;;;;;;-3.48;67.35;97390.28;5079142;28;20220;-67
2024/01/12 05:57:39;;;;;;;82.90;36.90;;;;;;;-3.37;67.80;97397.41;5071162;28;20540;-67
2024/01/12 06:00:05;;;;;;;63.87;33.70;;;;;;;-3.50;68.69;97397.06;5086314;28;20250;-66
2024/01/12 06:02:31;;;;;;;60.57;32.37;;;;;;;-3.51;68.67;97397.91;5079348;28;20534;-67
2024/01/12 06:04:56;;;;;;;69.47;34.23;;;;;;;-3.58;68.98;97390.00;5086131;28;20408;-67
2024/01/12 06:07:21;;;;;;;77.53;33.23;;;;;;;-3.63;68.77;97388.19;5080491;28;20296;-67
2024/01/12 06:09:47;;;;;;;73.57;33.90;;;;;;;-3.45;67.89;97389.50;5086767;28;20177;-69
2024/01/12 06:12:12;;;;;;;69.60;32.40;;;;;;;-3.43;67.28;97392.97;5074546;28;20276;-68
2024/01/12 06:14:38;;;;;;;63.97;31.83;;;;;;;-3.27;66.42;97397.69;5085491;28;20960;-66
2024/01/12 06:17:04;;;;;;;66.93;33.80;;;;;;;-3.52;67.45;97392.72;5079405;28;20193;-67
2024/01/12 06:19:29;;;;;;;67.10;32.20;;;;;;;-3.60;67.43;97389.09;5080138;28;20438;-65
2024/01/12 06:21:55;;;;;;;75.23;33.50;;;;;;;-3.59;67.95;97388.25;5084450;28;20568;-67
2024/01/12 06:24:20;;;;;;;69.23;33.40;;;;;;;-3.67;67.71;97391.47;5075088;28;20261;-68
2024/01/12 06:26:45;;;;;;;61.13;33.17;;;;;;;-3.58;68.04;97390.00;5082725;28;20182;-70
2024/01/12 06:29:11;;;;;;;70.20;32.03;;;;;;;-3.52;66.67;97400.41;5079598;28;20268;-68
2024/01/12 06:31:36;;;;;;;71.50;31.60;;;;;;;-3.56;66.80;97396.91;5065765;28;20189;-67
2024/01/12 06:34:01;;;;;;;52.50;31.43;;;;;;;-3.74;67.29;97393.84;5073585;28;20224;-67
2024/01/12 06:36:27;;;;;;;56.77;31.30;;;;;;;-3.32;66.89;97396.69;5081292;28;20213;-67
2024/01/12 06:38:52;;;;;;;59.50;31.40;;;;;;;-3.42;65.88;97390.47;5080133;28;20213;-66
2024/01/12 06:41:18;;;;;;;49.60;29.30;;;;;;;-3.29;65.37;97394.22;5080242;28;20564;-70
2024/01/12 06:43:43;;;;;;;55.53;31.50;;;;;;;-3.47;66.76;97388.63;5079492;28;20182;-67
2024/01/12 06:46:08;;;;;;;58.27;29.30;;;;;;;-3.55;65.89;97392.66;5072668;28;20186;-70
2024/01/12 06:48:36;;;;;;;49.20;31.60;;;;;;;-3.55;65.65;97388.38;5084538;28;20250;-67
2024/01/12 06:51:02;;;;;;;59.03;31.27;;;;;;;-3.59;66.63;97384.03;5076679;28;20718;-67
2024/01/12 06:53:27;;;;;;;53.63;28.77;;;;;;;-3.35;65.26;97394.06;5078366;28;20485;-67
2024/01/12 06:55:53;;;;;;;57.90;32.10;;;;;;;-3.43;64.50;97390.41;5078669;28;20220;-67
2024/01/12 06:58:18;;;;;;;61.00;31.17;;;;;;;-3.50;64.96;97393.63;5076000;28;20239;-68
2024/01/12 07:00:43;;;;;;;64.27;30.57;;;;;;;-3.62;66.08;97389.91;5076704;28;20220;-69
2024/01/12 07:03:09;;;;;;;66.13;34.17;;;;;;;-3.74;66.21;97392.13;5090321;28;20185;-67
2024/01/12 07:05:34;;;;;;;66.73;31.33;;;;;;;-3.87;67.04;97395.22;5107840;28;20264;-66
2024/01/12 07:07:59;;;;;;;69.93;31.13;;;;;;;-3.89;66.90;97396.84;5081882;28;20265;-69
2024/01/12 07:10:25;;;;;;;64.33;33.97;;;;;;;-3.96;66.81;97388.13;5090585;28;20176;-67
2024/01/12 07:12:51;;;;;;;69.10;36.33;;;;;;;-3.92;66.79;97392.50;5089154;28;20180;-69
2024/01/12 07:15:18;;;;;;;69.97;35.07;;;;;;;-4.10;66.30;97397.97;5092446;28;20205;-67
2024/01/12 07:17:43;;;;;;;64.23;30.77;;;;;;;-3.93;66.80;97397.59;5092461;28;20978;-69
2024/01/12 07:20:10;;;;;;;67.00;32.67;;;;;;;-3.85;65.88;97399.56;5092614;28;20411;-68
2024/01/12 07:22:36;;;;;;;59.30;31.43;;;;;;;-4.15;65.34;97407.22;5092549;28;20183;-66
2024/01/12 07:25:01;;;;;;;58.60;30.73;;;;;;;-3.93;65.79;97408.69;5093217;28;20407;-68
2024/01/12 07:27:27;;;;;;;57.87;29.60;;;;;;;-4.05;64.81;97395.53;5092557;28;20492;-68
2024/01/12 07:29:52;;;;;;;52.03;29.10;;;;;;;-3.78;65.82;97392.91;5092191;28;20283;-67
2024/01/12 07:32:17;;;;;;;56.57;31.10;;;;;;;-3.88;65.86;97398.59;5083347;28;20186;-66
2024/01/12 07:34:43;;;;;;;61.80;31.43;;;;;;;-3.85;64.85;97396.09;5084231;28;20265;-69
2024/01/12 07:37:08;;;;;;;67.80;33.20;;;;;;;-3.97;66.37;97391.47;5085996;28;20205;-70
2024/01/12 07:39:33;;;;;;;69.97;36.63;;;;;;;-3.67;65.65;97412.00;5090318;28;20190;-69
2024/01/12 07:41:59;;;;;;;71.67;34.47;;;;;;;-3.81;66.72;97409.88;5091691;28;20648;-68
2024/01/12 07:44:24;;;;;;;69.30;33.27;;;;;;;-3.62;65.98;97410.44;5090841;28;20202;-67
2024/01/12 07:46:49;;;;;;;69.80;32.40;;;;;;;-3.76;66.93;97419.44;5078591;28;20252;-66
2024/01/12 07:49:16;;;;;;;67.50;33.23;;;;;;;-3.81;66.27;97415.88;5083767;28;20201;-68
2024/01/12 07:51:41;;;;;;;79.10;36.00;;;;;;;-3.60;67.16;97413.03;5089133;28;20504;-68
2024/01/12 07:54:08;;;;;;;70.77;34.27;;;;;;;-3.69;68.06;97420.47;5083156;28;20641;-68
2024/01/12 07:56:34;;;;;;;73.53;35.80;;;;;;;-3.75;67.86;97416.06;5086230;28;20209;-69
2024/01/12 07:59:00;;;;;;;76.27;34.90;;;;;;;-3.60;68.15;97419.88;5089446;27;20848;-66
2024/01/12 08:01:25;;;;;;;88.67;33.47;;;;;;;-3.67;67.75;97408.56;5088923;28;20182;-68
2024/01/12 08:03:51;;;;;;;73.00;32.97;;;;;;;-3.60;68.54;97412.19;5093313;28;20494;-66
2024/01/12 08:06:16;;;;;;;71.00;34.90;;;;;;;-3.42;68.21;97407.56;5098713;28;20911;-66
2024/01/12 08:08:41;;;;;;;73.07;35.70;;;;;;;-3.57;67.92;97409.69;5091952;27;20743;-67
2024/01/12 08:11:07;;;;;;;79.90;37.73;;;;;;;-3.69;68.99;97411.09;5093619;28;20180;-67
2024/01/12 08:13:32;;;;;;;68.40;36.13;;;;;;;-3.57;67.78;97413.13;5089602;28;20327;-67
2024/01/12 08:15:58;;;;;;;69.83;34.40;;;;;;;-3.58;67.66;97408.84;5089471;28;20289;-67
2024/01/12 08:18:23;;;;;;;60.13;33.27;;;;;;;-3.50;67.52;97412.47;5089326;28;20555;-67
2024/01/12 08:20:48;;;;;;;64.00;35.83;;;;;;;-3.59;67.24;97412.25;5076728;28;20174;-68
2024/01/12 08:23:15;;;;;;;73.40;35.97;;;;;;;-3.48;68.00;97405.69;5077056;28;20177;-68
2024/01/12 08:25:41;;;;;;;73.37;35.43;;;;;;;-3.43;66.80;97396.41;5088048;28;20173;-68
2024/01/12 08:28:07;;;;;;;66.87;32.50;;;;;;;-3.18;67.27;97412.47;5088993;28;20459;-64
2024/01/12 08:30:33;;;;;;;71.43;35.33;;;;;;;-3.09;65.86;97410.13;5077528;28;20185;-67
2024/01/12 08:32:59;;;;;;;67.30;34.53;;;;;;;-2.93;66.44;97411.38;5088827;28;20412;-67
2024/01/12 08:35:26;;;;;;;71.87;33.47;;;;;;;-2.51;64.68;97408.13;5088676;28;20982;-66
2024/01/12 08:37:51;;;;;;;67.97;32.00;;;;;;;-2.62;64.67;97404.44;5088446;28;20451;-66
2024/01/12 08:40:16;;;;;;;79.50;36.10;;;;;;;-2.18;63.38;97414.84;5082801;28;20463;-69
2024/01/12 08:42:42;;;;;;;78.73;38.37;;;;;;;-2.26;63.53;97417.28;5080356;28;20173;-69
2024/01/12 08:45:08;;;;;;;78.77;35.53;;;;;;;-2.26;63.75;97418.97;5085331;28;20181;-66
2024/01/12 08:47:33;;;;;;;81.63;36.90;;;;;;;-2.23;63.70;97419.91;5080961;28;20814;-67
2024/01/12 08:49:58;;;;;;;73.97;34.80;;;;;;;-2.10;63.58;97422.75;5076884;28;20448;-68
2024/01/12 08:52:24;;;;;;;71.93;34.43;;;;;;;-1.86;63.69;97427.56;5084194;28;20186;-68
2024/01/12 08:54:50;;;;;;;71.90;36.17;;;;;;;-1.95;63.13;97428.22;5088897;28;20190;-68
2024/01/12 08:57:15;;;;;;;73.63;37.20;;;;;;;-1.98;63.09;97423.88;5101504;28;20232;-69
2024/01/12 08:59:40;;;;;;;62.00;32.80;;;;;;;-2.08;62.91;97429.66;5104721;28;20165;-69
2024/01/12 09:02:06;;;;;;;69.40;35.73;;;;;;;-2.14;63.09;97435.53;5103556;28;20173;-68
2024/01/12 09:04:31;;;;;;;75.40;35.73;;;;;;;-1.91;63.44;97430.03;5085358;28;20178;-67
2024/01/12 09:06:57;;;;;;;60.93;32.07;;;;;;;-2.04;63.31;97439.19;5084477;28;20227;-67
2024/01/12 09:09:23;;;;;;;68.60;36.30;;;;;;;-1.96;63.64;97449.63;5078611;28;20182;-67
2024/01/12 09:11:48;;;;;;;74.23;39.30;;;;;;;-2.11;63.03;97442.44;5080604;28;20209;-68
2024/01/12 09:14:13;;;;;;;68.70;36.63;;;;;;;-2.10;63.63;97448.44;5066502;28;20190;-68
2024/01/12 09:16:39;;;;;;;73.53;37.00;;;;;;;-1.99;63.12;97440.16;5067339;28;20286;-70
2024/01/12 09:19:04;;;;;;;79.20;38.00;;;;;;;-1.80;63.24;97448.25;5072082;28;20210;-68
2024/01/12 09:21:29;;;;;;;69.50;35.60;;;;;;;-1.86;62.97;97435.28;5065032;28;20201;-68
2024/01/12 09:23:55;;;;;;;70.10;32.77;;;;;;;-1.88;62.65;97439.53;5068888;28;20255;-67
2024/01/12 09:26:20;;;;;;;70.40;36.20;;;;;;;-1.85;62.85;97435.31;5073529;28;20201;-68
2024/01/12 09:28:46;;;;;;;72.13;35.60;;;;;;;-2.23;63.62;97442.19;5067654;28;20202;-66
2024/01/12 09:31:11;;;;;;;61.90;34.80;;;;;;;-2.98;64.85;97446.34;5086846;28;20189;-68
2024/01/12 09:33:37;;;;;;;61.60;33.30;;;;;;;-2.69;65.47;97449.66;5103717;28;20180;-67
2024/01/12 09:36:03;;;;;;;71.07;36.60;;;;;;;-2.50;65.27;97453.56;5080838;28;20584;-67
2024/01/12 09:38:28;;;;;;;70.63;37.40;;;;;;;-2.41;64.85;97453.78;5066408;28;20241;-68
2024/01/12 09:40:54;;;;;;;79.00;36.33;;;;;;;-2.24;63.81;97459.31;5072153;28;20801;-67
2024/01/12 09:43:21;;;;;;;65.90;34.40;;;;;;;-2.29;63.69;97458.34;5076129;28;20195;-66
2024/01/12 09:45:50;;;;;;;66.43;37.30;;;;;;;-1.77;63.23;97459.50;5076876;28;20186;-66
2024/01/12 09:48:16;;;;;;;76.00;37.30;;;;;;;-1.58;61.94;97462.47;5079523;28;20459;-65
2024/01/12 09:50:43;;;;;;;59.40;32.80;;;;;;;-2.25;63.55;97467.84;5080110;28;20440;-62
2024/01/12 09:53:09;;;;;;;68.80;34.43;;;;;;;-2.71;64.42;97459.03;5066824;28;20186;-65
2024/01/12 09:55:34;;;;;;;69.20;34.80;;;;;;;-2.39;65.36;97466.66;5081124;28;20473;-66
2024/01/12 09:58:01;;;;;;;67.83;35.70;;;;;;;-1.72;62.48;97457.91;5076691;28;20193;-65
2024/01/12 10:00:31;;;;;;;73.13;37.90;;;;;;;-0.85;63.02;97450.13;5072923;28;20936;-65
2024/01/12 10:02:58;;;;;;;67.27;34.70;;;;;;;-1.13;61.11;97456.50;5075214;28;20439;-66
2024/01/12 10:05:24;;;;;;;72.00;35.90;;;;;;;-1.49;61.80;97449.75;5073739;28;20425;-64
2024/01/12 10:07:50;;;;;;;68.30;35.20;;;;;;;-1.18;61.34;97446.09;5078004;28;21135;-65
2024/01/12 10:10:15;;;;;;;66.40;35.77;;;;;;;-1.39;62.46;97440.53;5079481;28;20443;-66
2024/01/12 10:12:40;;;;;;;64.57;35.60;;;;;;;-1.58;63.00;97447.88;5079670;28;20904;-67
2024/01/12 10:15:11;;;;;;;69.10;38.20;;;;;;;-1.30;62.33;97445.84;5066191;28;20337;-65
2024/01/12 10:17:36;;;;;;;78.47;36.63;;;;;;;-1.26;62.19;97444.22;5073515;28;20249;-65
2024/01/12 10:20:04;;;;;;;72.50;36.30;;;;;;;-0.26;60.14;97434.78;5076993;28;20920;-65
2024/01/12 10:22:30;;;;;;;70.30;34.80;;;;;;;0.05;58.10;97424.91;5076982;28;20616;-66
2024/01/12 10:25:04;;;;;;;74.43;38.70;;;;;;;-0.05;57.86;97423.03;5082135;28;20583;-66
2024/01/12 10:27:30;;;;;;;70.77;36.20;;;;;;;-0.85;60.96;97414.06;5069723;28;20507;-65
2024/01/12 10:29:56;;;;;;;72.10;39.40;;;;;;;-1.00;61.70;97416.34;5078269;28;20431;-65
2024/01/12 10:32:22;;;;;;;73.53;35.80;;;;;;;-0.25;59.34;97413.28;5086662;28;20500;-65
2024/01/12 10:34:49;;;;;;;65.63;36.70;;;;;;;-0.92;60.54;97414.78;5085621;28;20205;-67
2024/01/12 10:37:15;;;;;;;68.33;37.30;;;;;;;-0.50;60.37;97406.88;5088337;28;20446;-69
2024/01/12 10:39:44;;;;;;;77.33;36.80;;;;;;;-0.13;59.67;97409.16;5087853;28;20782;-69
2024/01/12 10:42:11;;;;;;;66.80;36.50;;;;;;;-0.44;60.00;97400.97;5088323;28;20423;-67
2024/01/12 10:44:39;;;;;;;73.00;36.63;;;;;;;-0.36;59.85;97401.06;5087617;28;20414;-68
2024/01/12 10:47:06;;;;;;;77.53;37.20;;;;;;;-0.32;60.26;97398.56;5088302;28;20411;-70
2024/01/12 10:49:45;;;;;;;76.80;38.67;;;;;;;-0.71;60.81;97397.13;5096541;28;20662;-65
2024/01/12 10:52:31;;;;;;;78.00;38.27;;;;;;;-0.73;61.73;97390.19;5102073;28;20407;-67
2024/01/12 10:55:03;;;;;;;85.23;37.33;;;;;;;-1.49;63.63;97400.84;5101577;28;20462;-67
2024/01/12 10:57:30;;;;;;;74.33;37.10;;;;;;;-2.37;65.94;97409.31;5091263;28;20438;-67
2024/01/12 10:59:56;;;;;;;72.67;39.13;;;;;;;-2.45;67.73;97410.84;5088172;28;20549;-66
2024/01/12 11:02:22;;;;;;;73.70;37.80;;;;;;;-2.28;67.23;97407.78;5087770;28;20752;-66
2024/01/12 11:04:48;;;;;;;77.23;39.90;;;;;;;-2.24;68.00;97400.19;5077395;28;20480;-64
2024/01/12 11:07:15;;;;;;;72.50;37.13;;;;;;;-2.46;68.30;97406.50;5077659;28;20201;-66
2024/01/12 11:09:40;;;;;;;74.77;40.00;;;;;;;-2.35;68.75;97410.22;5055892;28;20540;-67